Current Weather

Al Kharj

Al Kharj, Saudi Arabia (OEKJ)

Report from: Sunday, June 26, 2022 5:00 PM UTC
Current time: Sunday, June 26, 2022 6:12 PM UTC

Nearby weather
Weather history
Weather forecast

Temperature42.0°C (107.6°F)
Heat index38.4°C (101.2°F)
Dew point-1.0°C (30.2°F)
Winds 13 kts (6.7 m/s, 15 mph) North-Northeast (30°)
Visibility3.7 mi. (6 km)
Altimeter29.71 in.Hg (1006 mB)
Relative humidity7 %
Density altitude3,356 ft. (1,023 m)
Flight conditions Marginal Visual Meteorological Conditions
Raw dataOEKJ 261700Z 03013KT 6000 NSC 42/M01 Q1006
An error has occurred. This application may no longer respond until reloaded. Reload 🗙